Big Bear Station Historical Data
Daily Summary for July 9, 2019 Units:  English    Metric   Both
Next Day »
Daily Weekly Monthly Yearly Custom
  High: Low: Average:
Temperature: 76.8 °F 45.9 °F 60.8 °F
Dew Point: 49.4 °F 29.7 °F 40.3 °F
Humidity: 75% 35% 48%
Wind Speed: 5.3mph 0mph 0.2mph
Wind Gust: -999mph - -
Wind- - NNW
Pressure: 23.64 in 23.55 in -
Precipitation: 0 in    
Historical Graphs
 
 
Tabular Data for July 9, 2019
Time Temperature Dew Point Pressure Wind Wind Speed Wind Gust Humidity Rainfall Rate (Hourly)
00:13 52 °F 31.3 °F 23.57 in Calm   -999 mph 45% 0.00 in
00:28 51.4 °F 32.9 °F 23.57 in Calm   -999 mph 49% 0.00 in
00:43 50.7 °F 33.7 °F 23.56 in Calm   -999 mph 52% 0.00 in
00:59 50.2 °F 33.2 °F 23.56 in Calm   -999 mph 52% 0.00 in
01:14 49.8 °F 32.4 °F 23.56 in Calm   -999 mph 51% 0.00 in
01:29 49.3 °F 29.9 °F 23.56 in Calm   -999 mph 47% 0.00 in
01:44 49.1 °F 29.7 °F 23.56 in Calm   -999 mph 47% 0.00 in
02:00 48.7 °F 30.4 °F 23.56 in Calm   -999 mph 49% 0.00 in
02:15 48.4 °F 32.5 °F 23.55 in Calm   -999 mph 54% 0.00 in
02:31 48 °F 33.9 °F 23.55 in Calm   -999 mph 58% 0.00 in
02:46 47.8 °F 30.5 °F 23.55 in Calm   -999 mph 51% 0.00 in
03:01 47.7 °F 31.9 °F 23.55 in Calm   -999 mph 54% 0.00 in
03:16 47.5 °F 32.1 °F 23.55 in Calm   -999 mph 55% 0.00 in
03:31 46.9 °F 32.5 °F 23.55 in Calm   -999 mph 57% 0.00 in
03:47 46.8 °F 32.8 °F 23.55 in Calm   -999 mph 58% 0.00 in
04:02 46.8 °F 31.5 °F 23.55 in Calm   -999 mph 55% 0.00 in
04:17 46.6 °F 31.3 °F 23.55 in Calm   -999 mph 55% 0.00 in
04:32 46.2 °F 30.5 °F 23.56 in Calm   -999 mph 54% 0.00 in
04:47 46 °F 30.7 °F 23.56 in Calm   -999 mph 55% 0.00 in
05:03 46 °F 30.3 °F 23.56 in Calm   -999 mph 54% 0.00 in
05:18 45.9 °F 31.5 °F 23.56 in Calm   -999 mph 57% 0.00 in
05:33 46 °F 32 °F 23.56 in Calm   -999 mph 58% 0.00 in
05:48 45.9 °F 32.8 °F 23.57 in Calm   -999 mph 60% 0.00 in
06:03 45.9 °F 34 °F 23.57 in Calm   -999 mph 63% 0.00 in
06:19 46 °F 34.9 °F 23.57 in Calm   -999 mph 65% 0.00 in
06:34 46.9 °F 38.3 °F 23.57 in Calm   -999 mph 72% 0.00 in
06:49 46.6 °F 39.1 °F 23.57 in Calm   -999 mph 75% 0.00 in
07:04 47.7 °F 38.8 °F 23.58 in Calm   -999 mph 71% 0.00 in
07:20 48.6 °F 39.3 °F 23.58 in Calm   -999 mph 70% 0.00 in
07:35 49.3 °F 41 °F 23.58 in Calm   -999 mph 73% 0.00 in
07:51 50.5 °F 42.2 °F 23.58 in Calm   -999 mph 73% 0.00 in
08:06 52.3 °F 41.3 °F 23.59 in Calm   -999 mph 66% 0.00 in
08:21 56.1 °F 38.2 °F 23.59 in Calm   -999 mph 51% 0.00 in
08:36 59.4 °F 33.8 °F 23.59 in Calm   -999 mph 38% 0.00 in
08:51 60.4 °F 36.6 °F 23.59 in Calm   -999 mph 41% 0.00 in
09:07 61.7 °F 36.5 °F 23.59 in Calm   -999 mph 39% 0.00 in
09:22 62.6 °F 37.3 °F 23.60 in Calm   -999 mph 39% 0.00 in
09:37 63.5 °F 37.4 °F 23.60 in Calm   -999 mph 38% 0.00 in
09:52 64.4 °F 36.1 °F 23.60 in Calm   -999 mph 35% 0.00 in
10:07 65.1 °F 38.2 °F 23.60 in Calm   -999 mph 37% 0.00 in
10:23 66.6 °F 39.5 °F 23.60 in WNW 5.3 mph -999 mph 37% 0.00 in
10:38 67.1 °F 40 °F 23.60 in North 1.1 mph -999 mph 37% 0.00 in
10:53 67.3 °F 41.5 °F 23.61 in Calm   -999 mph 39% 0.00 in
11:08 68 °F 40.8 °F 23.61 in Calm   -999 mph 37% 0.00 in
11:23 68.9 °F 41.6 °F 23.61 in Calm   -999 mph 37% 0.00 in
11:39 69.6 °F 42.2 °F 23.61 in Calm   -999 mph 37% 0.00 in
11:54 70.7 °F 42.4 °F 23.61 in NW 4.7 mph -999 mph 36% 0.00 in
12:09 72.5 °F 44 °F 23.61 in NW 1.1 mph -999 mph 36% 0.00 in
12:24 72.9 °F 44.4 °F 23.61 in Calm   -999 mph 36% 0.00 in
12:39 73.9 °F 45.3 °F 23.61 in Calm   -999 mph 36% 0.00 in
12:55 74.5 °F 45.1 °F 23.62 in North 3.7 mph -999 mph 35% 0.00 in
13:10 74.7 °F 46 °F 23.61 in Calm   -999 mph 36% 0.00 in
13:25 75.4 °F 48 °F 23.61 in NW 4.2 mph -999 mph 38% 0.00 in
13:40 75.9 °F 47.8 °F 23.62 in Calm   -999 mph 37% 0.00 in
13:56 76.1 °F 47.9 °F 23.62 in Calm   -999 mph 37% 0.00 in
14:11 76.5 °F 48.3 °F 23.62 in Calm   -999 mph 37% 0.00 in
14:26 75.4 °F 49.4 °F 23.62 in Calm   -999 mph 40% 0.00 in
14:41 75.7 °F 48.3 °F 23.62 in Calm   -999 mph 38% 0.00 in
14:56 75.7 °F 46.9 °F 23.62 in NNW 1.1 mph -999 mph 36% 0.00 in
15:12 76.8 °F 47.1 °F 23.62 in Calm   -999 mph 35% 0.00 in
15:27 76.3 °F 47.4 °F 23.62 in Calm   -999 mph 36% 0.00 in
15:42 76.3 °F 47.4 °F 23.61 in Calm   -999 mph 36% 0.00 in
15:58 76.5 °F 46.8 °F 23.61 in Calm   -999 mph 35% 0.00 in
16:13 74.8 °F 47.5 °F 23.61 in NNW 1.7 mph -999 mph 38% 0.00 in
16:28 74.5 °F 47.2 °F 23.61 in Calm   -999 mph 38% 0.00 in
16:43 75.4 °F 47.3 °F 23.61 in Calm   -999 mph 37% 0.00 in
16:58 76.6 °F 47.7 °F 23.61 in Calm   -999 mph 36% 0.00 in
17:14 76.1 °F 47.2 °F 23.61 in Calm   -999 mph 36% 0.00 in
17:29 76.8 °F 47.8 °F 23.61 in Calm   -999 mph 36% 0.00 in
17:44 74.3 °F 47.1 °F 23.61 in Calm   -999 mph 38% 0.00 in
17:59 74.3 °F 47.1 °F 23.61 in Calm   -999 mph 38% 0.00 in
18:14 73.2 °F 46.8 °F 23.61 in Calm   -999 mph 39% 0.00 in
18:30 73 °F 47.3 °F 23.61 in Calm   -999 mph 40% 0.00 in
18:45 73 °F 46.6 °F 23.61 in Calm   -999 mph 39% 0.00 in
19:00 71.8 °F 46.2 °F 23.62 in Calm   -999 mph 40% 0.00 in
19:15 70.5 °F 46.3 °F 23.62 in Calm   -999 mph 42% 0.00 in
19:30 68.4 °F 45 °F 23.62 in Calm   -999 mph 43% 0.00 in
19:46 65.7 °F 44.9 °F 23.62 in Calm   -999 mph 47% 0.00 in
20:01 63.5 °F 44 °F 23.62 in Calm   -999 mph 49% 0.00 in
20:16 61.7 °F 44.4 °F 23.63 in Calm   -999 mph 53% 0.00 in
20:31 61 °F 43.7 °F 23.63 in Calm   -999 mph 53% 0.00 in
20:46 59.4 °F 43.7 °F 23.63 in Calm   -999 mph 56% 0.00 in
21:02 58.5 °F 44.2 °F 23.63 in Calm   -999 mph 59% 0.00 in
21:17 57.7 °F 43.9 °F 23.63 in Calm   -999 mph 60% 0.00 in
21:32 57 °F 44.1 °F 23.64 in Calm   -999 mph 62% 0.00 in
21:47 56.1 °F 42 °F 23.64 in Calm   -999 mph 59% 0.00 in
22:03 55.8 °F 41.7 °F 23.64 in Calm   -999 mph 59% 0.00 in
22:18 55 °F 40.5 °F 23.64 in Calm   -999 mph 58% 0.00 in
22:33 54.7 °F 40.2 °F 23.64 in Calm   -999 mph 58% 0.00 in
22:48 54.1 °F 39.2 °F 23.64 in Calm   -999 mph 57% 0.00 in
23:03 53.6 °F 39.2 °F 23.64 in Calm   -999 mph 58% 0.00 in
23:19 53.2 °F 39.7 °F 23.64 in Calm   -999 mph 60% 0.00 in
23:34 52.7 °F 40 °F 23.64 in Calm   -999 mph 62% 0.00 in
23:49 52.5 °F 40.7 °F 23.64 in Calm   -999 mph 64% 0.00 in
Big Bear CA Weather